createdAt,value
2023-03-18T00:01:09.635Z,3.20
2023-03-18T00:03:38.617Z,3.67
2023-03-18T00:06:11.659Z,3.67
2023-03-18T00:08:40.266Z,6.23
2023-03-18T00:11:10.050Z,3.10
2023-03-18T00:13:38.403Z,3.20
2023-03-18T00:16:07.762Z,3.40
2023-03-18T00:18:36.105Z,3.40
2023-03-18T00:21:04.421Z,4.93
2023-03-18T00:23:34.591Z,2.90
2023-03-18T00:26:03.045Z,4.07
2023-03-18T00:28:31.657Z,4.83
2023-03-18T00:31:05.295Z,3.97
2023-03-18T00:33:33.737Z,3.13
2023-03-18T00:36:01.992Z,3.00
2023-03-18T00:38:30.515Z,3.50
2023-03-18T00:41:10.848Z,3.07
2023-03-18T00:43:46.101Z,3.57
2023-03-18T00:46:16.339Z,3.10
2023-03-18T00:48:44.884Z,3.60
2023-03-18T00:51:14.210Z,3.97
2023-03-18T00:53:42.675Z,3.87
2023-03-18T00:56:12.119Z,3.20
2023-03-18T00:58:40.992Z,3.40
2023-03-18T01:01:09.814Z,3.90
2023-03-18T01:03:37.745Z,3.40
2023-03-18T01:06:06.170Z,4.13
2023-03-18T01:08:33.924Z,6.30
2023-03-18T01:11:01.713Z,5.20
2023-03-18T01:13:31.113Z,3.93
2023-03-18T01:15:58.899Z,3.40
2023-03-18T01:18:26.693Z,5.00
2023-03-18T01:20:55.583Z,4.20
2023-03-18T01:23:23.613Z,4.67
2023-03-18T01:25:51.492Z,4.60
2023-03-18T01:28:19.543Z,4.80
2023-03-18T01:30:48.835Z,4.53
2023-03-18T01:33:17.822Z,4.17
2023-03-18T01:35:46.964Z,4.33
2023-03-18T01:38:15.320Z,4.77
2023-03-18T01:40:45.243Z,4.27
2023-03-18T01:43:16.529Z,4.73
2023-03-18T01:45:48.736Z,4.73
2023-03-18T01:48:19.615Z,4.10
2023-03-18T01:50:52.304Z,5.13
2023-03-18T01:53:22.395Z,4.67
2023-03-18T01:55:52.190Z,4.23
2023-03-18T01:58:23.396Z,4.10
2023-03-18T02:00:57.727Z,5.93
2023-03-18T02:03:27.782Z,5.60
2023-03-18T02:05:56.004Z,5.47
2023-03-18T02:08:24.144Z,4.50
2023-03-18T02:10:53.289Z,4.73
2023-03-18T02:13:21.063Z,4.67
2023-03-18T02:15:53.285Z,6.07
2023-03-18T02:18:25.123Z,5.73
2023-03-18T02:21:12.358Z,4.60
2023-03-18T02:23:49.049Z,5.03
2023-03-18T02:26:23.744Z,5.87
2023-03-18T02:28:58.169Z,4.73
2023-03-18T02:31:27.385Z,4.50
2023-03-18T02:33:55.409Z,4.80
2023-03-18T02:36:27.851Z,6.83
2023-03-18T02:38:57.404Z,4.60
2023-03-18T02:41:27.309Z,4.83
2023-03-18T02:43:56.619Z,5.73
2023-03-18T02:46:32.111Z,4.53
2023-03-18T02:49:01.641Z,5.17
2023-03-18T02:51:30.108Z,5.33
2023-03-18T02:54:02.642Z,5.73
2023-03-18T02:56:30.660Z,4.87
2023-03-18T02:58:59.761Z,5.83
2023-03-18T03:01:27.778Z,4.80
2023-03-18T03:03:56.373Z,6.00
2023-03-18T03:06:24.349Z,5.43
2023-03-18T03:08:52.141Z,5.80
2023-03-18T03:11:20.647Z,6.57
2023-03-18T03:13:48.406Z,6.13
2023-03-18T03:16:19.318Z,5.30
2023-03-18T03:18:48.040Z,5.97
2023-03-18T03:21:16.205Z,5.30
2023-03-18T03:23:46.631Z,5.70
2023-03-18T03:26:14.938Z,5.53
2023-03-18T03:28:42.983Z,5.83
2023-03-18T03:31:10.980Z,5.30
2023-03-18T03:33:43.661Z,8.87
2023-03-18T03:36:13.492Z,6.97
2023-03-18T03:38:42.363Z,5.77
2023-03-18T03:41:11.600Z,7.60
2023-03-18T03:43:40.346Z,5.80
2023-03-18T03:46:09.676Z,7.00
2023-03-18T03:48:38.189Z,6.00
2023-03-18T03:51:08.117Z,6.57
2023-03-18T03:53:37.026Z,7.00
2023-03-18T03:56:05.572Z,6.43
2023-03-18T03:58:33.681Z,6.97
2023-03-18T04:01:01.421Z,7.73
2023-03-18T04:03:30.149Z,8.30
2023-03-18T04:05:57.871Z,8.10
2023-03-18T04:08:27.540Z,7.57
2023-03-18T04:10:55.266Z,8.63
2023-03-18T04:13:23.496Z,6.30
2023-03-18T04:15:51.923Z,5.83
2023-03-18T04:18:19.728Z,5.93
2023-03-18T04:20:47.917Z,6.00
2023-03-18T04:23:15.691Z,6.87
2023-03-18T04:25:44.787Z,6.27
2023-03-18T04:28:12.511Z,6.90
2023-03-18T04:30:40.215Z,7.10
2023-03-18T04:33:07.976Z,6.93
2023-03-18T04:35:35.719Z,6.87
2023-03-18T04:38:03.483Z,6.33
2023-03-18T04:40:31.497Z,6.43
2023-03-18T04:43:00.785Z,6.73
2023-03-18T04:45:29.469Z,6.77
2023-03-18T04:47:57.425Z,9.57
2023-03-18T04:50:25.570Z,6.77
2023-03-18T04:52:53.301Z,8.20
2023-03-18T04:55:21.577Z,6.40
2023-03-18T04:57:50.558Z,11.73
2023-03-18T05:00:22.406Z,6.80
2023-03-18T05:02:50.390Z,7.07
2023-03-18T05:05:18.278Z,7.97
2023-03-18T05:07:46.069Z,7.07
2023-03-18T05:10:14.125Z,8.37
2023-03-18T05:12:42.112Z,9.23
2023-03-18T05:15:12.129Z,7.40
2023-03-18T05:17:41.702Z,6.43
2023-03-18T05:20:11.636Z,7.17
2023-03-18T05:22:39.409Z,7.67
2023-03-18T05:25:08.526Z,7.00
2023-03-18T05:27:36.426Z,8.33
2023-03-18T05:30:04.980Z,7.37
2023-03-18T05:32:33.053Z,7.33
2023-03-18T05:35:02.197Z,6.27
2023-03-18T05:37:29.924Z,6.90
2023-03-18T05:39:57.666Z,6.90
2023-03-18T05:42:25.492Z,7.13
2023-03-18T05:44:54.348Z,6.67
2023-03-18T05:47:22.645Z,8.30
2023-03-18T05:49:50.604Z,8.77
2023-03-18T05:52:19.683Z,6.83
2023-03-18T05:54:47.417Z,7.20
2023-03-18T05:57:15.259Z,7.13
2023-03-18T05:59:43.912Z,10.23
2023-03-18T06:02:12.847Z,8.93
2023-03-18T06:04:41.200Z,8.27
2023-03-18T06:07:09.058Z,9.07
2023-03-18T06:09:38.460Z,7.73
2023-03-18T06:12:07.196Z,10.37
2023-03-18T06:14:35.455Z,7.40
2023-03-18T06:17:03.186Z,8.03
2023-03-18T06:19:32.245Z,7.70
2023-03-18T06:21:59.973Z,6.90
2023-03-18T06:24:28.682Z,7.27
2023-03-18T06:26:57.780Z,8.30
2023-03-18T06:29:25.490Z,8.53
2023-03-18T06:31:53.305Z,10.00
2023-03-18T06:34:21.015Z,7.57
2023-03-18T06:36:48.757Z,6.80
2023-03-18T06:39:16.477Z,9.07
2023-03-18T06:41:44.821Z,7.50
2023-03-18T06:44:14.790Z,9.27
2023-03-18T06:46:43.995Z,8.97
2023-03-18T06:49:12.720Z,7.40
2023-03-18T06:51:40.496Z,7.17
2023-03-18T06:54:09.472Z,8.53
2023-03-18T06:56:38.960Z,7.07
2023-03-18T06:59:07.996Z,10.20
2023-03-18T07:01:38.114Z,8.90
2023-03-18T07:04:06.868Z,9.33
2023-03-18T07:06:34.884Z,7.23
2023-03-18T07:09:02.884Z,8.73
2023-03-18T07:11:30.912Z,9.50
2023-03-18T07:13:58.642Z,7.30
2023-03-18T07:16:26.432Z,11.27
2023-03-18T07:18:58.238Z,7.30
2023-03-18T07:21:25.992Z,8.87
2023-03-18T07:23:55.538Z,9.63
2023-03-18T07:26:24.114Z,6.97
2023-03-18T07:28:51.867Z,9.53
2023-03-18T07:31:19.682Z,7.70
2023-03-18T07:33:47.416Z,7.13
2023-03-18T07:36:16.528Z,7.57
2023-03-18T07:38:44.333Z,7.73
2023-03-18T07:41:12.618Z,7.07
2023-03-18T07:43:40.371Z,6.93
2023-03-18T07:46:08.245Z,6.47
2023-03-18T07:48:36.054Z,7.83
2023-03-18T07:51:03.798Z,7.07
2023-03-18T07:53:33.744Z,8.47
2023-03-18T07:56:02.062Z,7.37
2023-03-18T07:58:29.802Z,6.87
2023-03-18T08:00:57.728Z,6.53
2023-03-18T08:03:25.449Z,7.03
2023-03-18T08:05:53.248Z,7.13
2023-03-18T08:08:21.902Z,6.70
2023-03-18T08:10:51.114Z,8.40
2023-03-18T08:13:18.869Z,10.10
2023-03-18T08:15:46.782Z,9.10
2023-03-18T08:18:14.676Z,9.00
2023-03-18T08:20:42.462Z,8.87
2023-03-18T08:23:10.213Z,9.70
2023-03-18T08:25:38.009Z,8.33
2023-03-18T08:28:07.653Z,7.50
2023-03-18T08:30:35.908Z,7.83
2023-03-18T08:33:03.804Z,8.07
2023-03-18T08:35:31.699Z,7.57
2023-03-18T08:37:59.918Z,6.67
2023-03-18T08:40:28.223Z,7.63
2023-03-18T08:42:55.958Z,7.97
2023-03-18T08:45:27.184Z,6.40
2023-03-18T08:47:55.236Z,9.60
2023-03-18T08:50:28.351Z,7.13
2023-03-18T08:52:57.991Z,10.73
2023-03-18T08:55:31.383Z,7.63
2023-03-18T08:58:00.137Z,8.90
2023-03-18T09:00:29.462Z,7.13
2023-03-18T09:02:57.244Z,7.23
2023-03-18T09:05:25.880Z,7.50
2023-03-18T09:07:53.677Z,7.03
2023-03-18T09:10:21.648Z,5.77
2023-03-18T09:12:49.968Z,7.03
2023-03-18T09:15:20.224Z,8.23
2023-03-18T09:18:04.144Z,7.53
2023-03-18T09:20:38.960Z,7.20
2023-03-18T09:23:07.509Z,8.27
2023-03-18T09:25:35.420Z,7.63
2023-03-18T09:28:03.502Z,12.07
2023-03-18T09:30:32.088Z,6.83
2023-03-18T09:33:01.749Z,7.27
2023-03-18T09:35:30.501Z,8.60
2023-03-18T09:37:58.410Z,9.90
2023-03-18T09:40:28.867Z,8.40
2023-03-18T09:43:06.279Z,9.07
2023-03-18T09:45:38.837Z,7.27
2023-03-18T09:48:35.693Z,10.30
2023-03-18T09:51:13.706Z,9.23
2023-03-18T09:53:47.119Z,7.67
2023-03-18T09:56:19.037Z,9.57
2023-03-18T09:58:53.838Z,7.70
2023-03-18T10:01:23.822Z,8.57
2023-03-18T10:03:58.083Z,7.40
2023-03-18T10:06:26.432Z,10.70
2023-03-18T10:09:01.987Z,9.43
2023-03-18T10:11:33.151Z,8.67
2023-03-18T10:14:22.444Z,11.17
2023-03-18T10:16:59.470Z,10.20
2023-03-18T10:19:29.602Z,12.27
2023-03-18T10:22:10.586Z,9.27
2023-03-18T10:24:43.583Z,12.27
2023-03-18T10:27:19.136Z,12.33
2023-03-18T10:29:50.275Z,10.57
2023-03-18T10:32:42.849Z,11.50
2023-03-18T10:35:32.079Z,11.90
2023-03-18T10:38:04.586Z,12.20
2023-03-18T10:40:37.610Z,11.33
2023-03-18T10:43:11.867Z,15.30
2023-03-18T10:45:39.919Z,12.47
2023-03-18T10:48:16.003Z,13.20
2023-03-18T10:50:51.588Z,12.03
2023-03-18T10:53:28.219Z,17.30
2023-03-18T10:56:04.427Z,17.17
2023-03-18T10:58:32.165Z,14.77
2023-03-18T11:01:00.502Z,13.23
2023-03-18T11:03:31.572Z,16.10
2023-03-18T11:06:04.689Z,16.13
2023-03-18T11:08:35.638Z,16.20
2023-03-18T11:11:17.498Z,16.03
2023-03-18T11:13:52.860Z,15.27
2023-03-18T11:16:42.523Z,15.13
2023-03-18T11:19:28.936Z,14.20
2023-03-18T11:22:10.598Z,18.27
2023-03-18T11:24:43.675Z,15.87
2023-03-18T11:27:27.844Z,18.60
2023-03-18T11:29:58.251Z,13.57
2023-03-18T11:32:29.066Z,15.83
2023-03-18T11:34:58.804Z,14.17
2023-03-18T11:37:35.889Z,13.57
2023-03-18T11:40:25.829Z,16.97
2023-03-18T11:42:58.698Z,14.30
2023-03-18T11:45:45.156Z,19.70
2023-03-18T11:48:18.626Z,17.23
2023-03-18T11:50:58.436Z,17.13
2023-03-18T11:53:37.837Z,13.60
2023-03-18T11:56:15.167Z,14.40
2023-03-18T11:59:08.574Z,15.73
2023-03-18T12:01:50.515Z,15.80
2023-03-18T12:04:36.150Z,16.30
2023-03-18T12:07:23.670Z,14.87
2023-03-18T12:10:03.706Z,13.87
2023-03-18T12:12:47.549Z,12.70
2023-03-18T12:15:23.753Z,14.40
2023-03-18T12:18:02.561Z,13.27
2023-03-18T12:20:50.517Z,12.17
2023-03-18T12:23:38.054Z,14.43
2023-03-18T12:26:09.568Z,12.13
2023-03-18T12:28:49.328Z,13.10
2023-03-18T12:31:35.245Z,14.97
2023-03-18T12:34:04.567Z,13.77
2023-03-18T12:36:54.119Z,13.80
2023-03-18T12:39:52.215Z,11.20
2023-03-18T12:42:31.398Z,12.70
2023-03-18T12:45:01.962Z,13.33
2023-03-18T12:47:38.884Z,11.23
2023-03-18T12:50:16.398Z,12.87
2023-03-18T12:52:47.548Z,15.53
2023-03-18T12:55:19.303Z,13.63
2023-03-18T12:57:50.782Z,12.10
2023-03-18T13:00:24.844Z,14.33
2023-03-18T13:03:07.843Z,12.53
2023-03-18T13:05:45.497Z,13.03
2023-03-18T13:08:44.562Z,13.90
2023-03-18T13:11:27.194Z,10.50
2023-03-18T13:14:04.748Z,12.67
2023-03-18T13:16:36.302Z,12.53
2023-03-18T13:19:04.829Z,10.90
2023-03-18T13:21:36.120Z,10.27
2023-03-18T13:24:25.458Z,10.50
2023-03-18T13:27:19.717Z,9.43
2023-03-18T13:29:55.349Z,12.70
2023-03-18T13:32:39.176Z,13.07
2023-03-18T13:35:28.518Z,9.77
2023-03-18T13:38:21.291Z,9.13
2023-03-18T13:41:04.547Z,9.83
2023-03-18T13:43:34.903Z,9.87
2023-03-18T13:46:04.441Z,9.73
2023-03-18T13:48:34.661Z,11.40
2023-03-18T13:51:20.471Z,8.80
2023-03-18T13:53:50.621Z,9.60
2023-03-18T13:56:32.964Z,13.13
2023-03-18T13:59:05.783Z,10.10
2023-03-18T14:01:36.453Z,8.70
2023-03-18T14:04:31.427Z,8.20
2023-03-18T14:07:15.387Z,9.63
2023-03-18T14:09:52.771Z,8.70
2023-03-18T14:12:24.030Z,11.67
2023-03-18T14:14:57.669Z,7.80
2023-03-18T14:17:41.928Z,9.57
2023-03-18T14:20:27.220Z,7.70
2023-03-18T14:22:56.204Z,4.30
2023-03-18T14:25:41.976Z,4.20
2023-03-18T14:28:28.586Z,4.43
2023-03-18T14:31:14.662Z,3.83
2023-03-18T14:33:58.301Z,6.53
2023-03-18T14:36:48.193Z,6.97
2023-03-18T14:39:19.412Z,9.47
2023-03-18T14:41:52.596Z,4.03
2023-03-18T14:44:25.225Z,3.83
2023-03-18T14:46:58.881Z,3.60
2023-03-18T14:49:36.545Z,3.33
2023-03-18T14:52:14.000Z,3.80
2023-03-18T14:54:45.921Z,3.90
2023-03-18T14:57:14.162Z,5.07
2023-03-18T14:59:41.912Z,5.17
2023-03-18T15:02:23.823Z,5.93
2023-03-18T15:04:55.448Z,7.93
2023-03-18T15:07:30.187Z,7.37
2023-03-18T15:09:58.946Z,5.40
2023-03-18T15:12:28.818Z,5.33
2023-03-18T15:14:57.149Z,5.57
2023-03-18T15:17:27.454Z,5.17
2023-03-18T15:20:00.071Z,5.23
2023-03-18T15:22:31.399Z,5.00
2023-03-18T15:25:02.517Z,6.60
2023-03-18T15:27:31.995Z,6.60
2023-03-18T15:30:01.511Z,4.30
2023-03-18T15:32:31.658Z,4.30
2023-03-18T15:35:14.913Z,3.70
2023-03-18T15:37:43.869Z,5.10
2023-03-18T15:40:30.760Z,4.60
2023-03-18T15:42:59.861Z,7.97
2023-03-18T15:45:31.439Z,5.30
2023-03-18T15:48:08.145Z,5.20
2023-03-18T15:50:37.618Z,4.43
2023-03-18T15:53:17.775Z,5.43
2023-03-18T15:55:50.057Z,4.63
2023-03-18T15:58:23.249Z,5.17
2023-03-18T16:00:53.022Z,7.20
2023-03-18T16:03:23.524Z,4.70
2023-03-18T16:05:54.604Z,6.03
2023-03-18T16:08:23.342Z,5.67
2023-03-18T16:10:53.569Z,5.27
2023-03-18T16:13:25.073Z,6.60
2023-03-18T16:15:53.212Z,5.00
2023-03-18T16:18:21.321Z,5.80
2023-03-18T16:20:49.667Z,6.87
2023-03-18T16:23:19.096Z,5.93
2023-03-18T16:25:49.152Z,6.20
2023-03-18T16:28:22.537Z,5.03
2023-03-18T16:30:52.149Z,5.70
2023-03-18T16:33:21.656Z,6.33
2023-03-18T16:35:54.307Z,7.40
2023-03-18T16:38:23.762Z,5.30
2023-03-18T16:40:53.867Z,6.10
2023-03-18T16:43:24.015Z,6.30
2023-03-18T16:45:52.446Z,6.90
2023-03-18T16:48:21.862Z,7.07
2023-03-18T16:50:51.500Z,6.60
2023-03-18T16:53:22.208Z,9.10
2023-03-18T16:55:53.813Z,5.80
2023-03-18T16:58:26.596Z,10.50
2023-03-18T17:00:54.413Z,17.70
2023-03-18T17:03:22.426Z,6.50
2023-03-18T17:05:52.107Z,11.77
2023-03-18T17:08:21.562Z,8.07
2023-03-18T17:10:55.287Z,11.13
2023-03-18T17:13:25.981Z,8.77
2023-03-18T17:15:54.085Z,7.40
2023-03-18T17:18:24.434Z,7.73
2023-03-18T17:20:52.766Z,6.30
2023-03-18T17:23:22.390Z,6.93
2023-03-18T17:25:54.649Z,8.97
2023-03-18T17:28:29.915Z,7.50
2023-03-18T17:30:57.891Z,8.57
2023-03-18T17:33:27.889Z,12.27
2023-03-18T17:35:56.642Z,23.90
2023-03-18T17:38:24.604Z,11.90
2023-03-18T17:40:55.429Z,15.13
2023-03-18T17:43:29.334Z,10.07
2023-03-18T17:45:57.534Z,10.30
2023-03-18T17:48:26.781Z,11.10
2023-03-18T17:50:56.910Z,19.97
2023-03-18T17:53:28.198Z,21.57
2023-03-18T17:55:57.679Z,15.67
2023-03-18T17:58:28.358Z,21.17
2023-03-18T18:01:06.641Z,18.07
2023-03-18T18:03:36.384Z,16.63
2023-03-18T18:06:04.744Z,17.30
2023-03-18T18:08:32.719Z,17.73
2023-03-18T18:11:10.951Z,32.77
2023-03-18T18:13:38.723Z,29.43
2023-03-18T18:16:07.047Z,29.90
2023-03-18T18:18:37.054Z,24.70
2023-03-18T18:21:06.803Z,23.40
2023-03-18T18:23:37.017Z,23.30
2023-03-18T18:26:08.678Z,22.27
2023-03-18T18:28:38.517Z,21.83
2023-03-18T18:31:10.245Z,22.23
2023-03-18T18:33:39.584Z,20.67
2023-03-18T18:36:08.508Z,29.87
2023-03-18T18:38:36.494Z,26.67
2023-03-18T18:41:04.254Z,25.63
2023-03-18T18:43:33.391Z,26.60
2023-03-18T18:46:01.340Z,25.30
2023-03-18T18:48:31.654Z,27.53
2023-03-18T18:51:00.572Z,31.20
2023-03-18T18:53:30.956Z,36.10
2023-03-18T18:56:00.970Z,33.30
2023-03-18T18:58:32.624Z,33.77
2023-03-18T19:01:01.786Z,30.47
2023-03-18T19:03:31.768Z,31.37
2023-03-18T19:06:01.515Z,39.53
2023-03-18T19:08:31.688Z,35.70
2023-03-18T19:11:01.521Z,31.83
2023-03-18T19:13:30.992Z,37.43
2023-03-18T19:16:02.805Z,34.80
2023-03-18T19:18:35.970Z,29.00
2023-03-18T19:21:03.795Z,29.63
2023-03-18T19:23:34.221Z,90.33
2023-03-18T19:26:03.052Z,93.47
2023-03-18T19:28:58.343Z,42.87
2023-03-18T19:31:31.303Z,32.97
2023-03-18T19:34:00.777Z,35.93
2023-03-18T19:36:30.268Z,31.87
2023-03-18T19:39:00.337Z,40.73
2023-03-18T19:41:28.635Z,35.07
2023-03-18T19:44:00.451Z,37.63
2023-03-18T19:46:35.994Z,33.70
2023-03-18T19:49:03.898Z,36.37
2023-03-18T19:51:31.691Z,38.03
2023-03-18T19:53:59.672Z,32.63
2023-03-18T19:56:28.955Z,31.40
2023-03-18T19:58:59.018Z,29.03
2023-03-18T20:01:28.921Z,29.43
2023-03-18T20:03:59.440Z,30.03
2023-03-18T20:06:27.618Z,31.57
2023-03-18T20:08:55.644Z,26.73
2023-03-18T20:11:23.803Z,29.67
2023-03-18T20:13:51.591Z,27.30
2023-03-18T20:16:19.825Z,25.20
2023-03-18T20:18:47.565Z,24.67
2023-03-18T20:21:24.134Z,27.67
2023-03-18T20:23:52.581Z,26.00
2023-03-18T20:26:20.562Z,22.47
2023-03-18T20:28:51.417Z,25.47
2023-03-18T20:31:19.197Z,26.50
2023-03-18T20:33:46.929Z,24.77
2023-03-18T20:36:19.157Z,20.53
2023-03-18T20:38:49.963Z,20.20
2023-03-18T20:41:18.849Z,23.27
2023-03-18T20:43:49.288Z,21.40
2023-03-18T20:46:18.080Z,18.50
2023-03-18T20:48:49.304Z,19.40
2023-03-18T20:51:24.213Z,16.50
2023-03-18T20:53:52.007Z,20.63
2023-03-18T20:56:22.824Z,20.07
2023-03-18T20:58:50.626Z,20.33
2023-03-18T21:01:19.297Z,18.77
2023-03-18T21:03:47.189Z,22.73
2023-03-18T21:06:16.387Z,22.50
2023-03-18T21:08:45.549Z,19.80
2023-03-18T21:11:22.817Z,21.07
2023-03-18T21:13:51.052Z,24.40
2023-03-18T21:16:20.008Z,22.03
2023-03-18T21:18:49.519Z,22.27
2023-03-18T21:21:23.865Z,22.17
2023-03-18T21:23:54.452Z,25.53
2023-03-18T21:26:22.551Z,22.90
2023-03-18T21:28:50.351Z,23.77
2023-03-18T21:31:27.708Z,25.30
2023-03-18T21:33:57.425Z,24.90
2023-03-18T21:36:26.080Z,28.13
2023-03-18T21:38:55.457Z,37.67
2023-03-18T21:41:25.429Z,58.13
2023-03-18T21:43:53.533Z,58.67
2023-03-18T21:46:23.023Z,50.67
2023-03-18T21:48:51.316Z,44.13
2023-03-18T21:51:37.891Z,45.77
2023-03-18T21:54:14.488Z,40.30
2023-03-18T21:56:42.200Z,40.87
2023-03-18T21:59:09.930Z,38.27
2023-03-18T22:01:37.716Z,41.13
2023-03-18T22:04:05.531Z,43.23
2023-03-18T22:06:33.970Z,40.70
2023-03-18T22:09:02.284Z,42.17
2023-03-18T22:11:31.588Z,35.83
2023-03-18T22:13:59.343Z,39.27
2023-03-18T22:16:27.130Z,41.07
2023-03-18T22:18:54.971Z,44.13
2023-03-18T22:21:26.038Z,39.70
2023-03-18T22:23:54.387Z,39.10
2023-03-18T22:26:22.761Z,37.57
2023-03-18T22:28:51.868Z,42.77
2023-03-18T22:31:21.949Z,41.70
2023-03-18T22:33:49.736Z,39.50
2023-03-18T22:36:19.599Z,40.27
2023-03-18T22:38:47.383Z,41.93
2023-03-18T22:41:20.752Z,44.43
2023-03-18T22:43:48.932Z,42.00
2023-03-18T22:46:18.266Z,42.87
2023-03-18T22:48:46.331Z,43.23
2023-03-18T22:51:22.379Z,47.87
2023-03-18T22:53:52.393Z,48.33
2023-03-18T22:56:20.249Z,47.17
2023-03-18T22:58:48.171Z,50.00
2023-03-18T23:01:18.797Z,40.30
2023-03-18T23:03:47.756Z,48.47
2023-03-18T23:06:17.285Z,51.70
2023-03-18T23:08:46.414Z,47.67
2023-03-18T23:11:15.049Z,47.50
2023-03-18T23:13:44.082Z,46.67
2023-03-18T23:16:16.006Z,50.03
2023-03-18T23:18:45.633Z,57.10
2023-03-18T23:21:17.762Z,53.77
2023-03-18T23:23:45.686Z,51.77
2023-03-18T23:26:13.752Z,53.67
2023-03-18T23:28:44.902Z,45.43
2023-03-18T23:31:13.713Z,47.63
2023-03-18T23:33:41.518Z,45.37
2023-03-18T23:36:11.801Z,55.03
2023-03-18T23:38:39.711Z,50.07
2023-03-18T23:41:08.246Z,44.90
2023-03-18T23:43:36.743Z,42.77
2023-03-18T23:46:04.723Z,53.53
2023-03-18T23:48:32.639Z,51.40
2023-03-18T23:51:00.713Z,51.03
2023-03-18T23:53:30.040Z,50.20
2023-03-18T23:55:57.766Z,53.97
2023-03-18T23:58:25.557Z,54.27
